createdAt,value
2022-10-08T00:00:19.414Z,14.30
2022-10-08T00:02:46.174Z,14.70
2022-10-08T00:05:13.106Z,11.60
2022-10-08T00:07:42.077Z,13.10
2022-10-08T00:10:08.931Z,8.07
2022-10-08T00:12:35.637Z,14.00
2022-10-08T00:15:02.760Z,11.67
2022-10-08T00:17:29.578Z,12.30
2022-10-08T00:19:57.402Z,8.73
2022-10-08T00:22:25.173Z,11.13
2022-10-08T00:24:53.487Z,12.80
2022-10-08T00:27:23.942Z,5.37
2022-10-08T00:29:52.299Z,11.73
2022-10-08T00:32:19.892Z,8.27
2022-10-08T00:34:47.699Z,11.40
2022-10-08T00:37:15.371Z,14.47
2022-10-08T00:39:42.125Z,20.17
2022-10-08T00:42:11.889Z,11.73
2022-10-08T00:44:51.565Z,10.87
2022-10-08T00:47:39.189Z,11.70
2022-10-08T00:50:11.697Z,13.67
2022-10-08T00:52:43.899Z,9.67
2022-10-08T00:55:13.029Z,12.63
2022-10-08T00:57:40.356Z,21.20
2022-10-08T01:00:11.362Z,9.17
2022-10-08T01:02:38.139Z,13.70
2022-10-08T01:05:05.984Z,13.37
2022-10-08T01:07:48.539Z,11.90
2022-10-08T01:10:38.249Z,9.40
2022-10-08T01:13:25.210Z,13.53
2022-10-08T01:16:08.436Z,14.57
2022-10-08T01:19:01.448Z,7.00
2022-10-08T01:21:39.788Z,16.67
2022-10-08T01:24:49.892Z,12.30
2022-10-08T01:27:25.182Z,8.87
2022-10-08T01:29:52.624Z,13.50
2022-10-08T01:32:27.361Z,16.03
2022-10-08T01:35:00.679Z,15.00
2022-10-08T01:37:31.945Z,13.90
2022-10-08T01:40:02.848Z,13.73
2022-10-08T01:42:32.274Z,12.13
2022-10-08T01:45:03.702Z,12.43
2022-10-08T01:47:31.074Z,9.93
2022-10-08T01:50:12.912Z,8.43
2022-10-08T01:52:48.810Z,9.63
2022-10-08T01:55:24.579Z,12.70
2022-10-08T01:57:53.103Z,12.77
2022-10-08T02:00:20.771Z,8.73
2022-10-08T02:02:47.645Z,12.57
2022-10-08T02:05:14.516Z,10.77
2022-10-08T02:07:42.924Z,13.33
2022-10-08T02:10:14.401Z,11.60
2022-10-08T02:12:41.920Z,13.23
2022-10-08T02:15:19.676Z,15.27
2022-10-08T02:18:10.885Z,13.17
2022-10-08T02:20:42.481Z,9.70
2022-10-08T02:23:23.314Z,15.53
2022-10-08T02:25:54.908Z,8.13
2022-10-08T02:28:41.222Z,13.13
2022-10-08T02:31:29.020Z,18.80
2022-10-08T02:34:12.657Z,11.93
2022-10-08T02:36:44.024Z,16.80
2022-10-08T02:39:12.663Z,11.90
2022-10-08T02:41:46.976Z,13.83
2022-10-08T02:44:18.595Z,15.40
2022-10-08T02:46:49.861Z,13.10
2022-10-08T02:49:24.312Z,12.07
2022-10-08T02:51:53.430Z,12.20
2022-10-08T02:54:22.742Z,15.47
2022-10-08T02:57:09.419Z,13.03
2022-10-08T02:59:36.902Z,13.30
2022-10-08T03:02:05.457Z,17.87
2022-10-08T03:04:46.671Z,14.93
2022-10-08T03:07:15.661Z,10.93
2022-10-08T03:09:47.582Z,10.77
2022-10-08T03:12:14.347Z,14.53
2022-10-08T03:14:45.660Z,16.43
2022-10-08T03:17:16.109Z,20.90
2022-10-08T03:19:43.611Z,15.17
2022-10-08T03:22:10.965Z,22.83
2022-10-08T03:24:37.711Z,14.90
2022-10-08T03:27:04.689Z,13.53
2022-10-08T03:29:31.404Z,16.00
2022-10-08T03:31:58.207Z,16.63
2022-10-08T03:34:26.047Z,12.13
2022-10-08T03:36:52.711Z,13.23
2022-10-08T03:39:19.459Z,10.50
2022-10-08T03:41:46.137Z,21.00
2022-10-08T03:44:13.079Z,15.70
2022-10-08T03:46:39.708Z,13.33
2022-10-08T03:49:06.524Z,12.77
2022-10-08T03:51:33.358Z,9.57
2022-10-08T03:54:00.111Z,21.67
2022-10-08T03:56:27.186Z,13.10
2022-10-08T03:58:59.675Z,12.17
2022-10-08T04:01:27.812Z,14.93
2022-10-08T04:03:54.705Z,15.03
2022-10-08T04:06:22.177Z,13.17
2022-10-08T04:08:48.843Z,8.20
2022-10-08T04:11:17.727Z,12.67
2022-10-08T04:13:44.416Z,12.23
2022-10-08T04:16:13.645Z,11.13
2022-10-08T04:18:41.202Z,11.13
2022-10-08T04:21:10.917Z,15.90
2022-10-08T04:23:39.569Z,16.87
2022-10-08T04:26:07.302Z,16.00
2022-10-08T04:28:38.594Z,16.50
2022-10-08T04:31:12.940Z,9.83
2022-10-08T04:33:39.952Z,14.87
2022-10-08T04:36:18.100Z,16.70
2022-10-08T04:38:45.529Z,14.30
2022-10-08T04:41:15.313Z,13.80
2022-10-08T04:43:44.044Z,13.90
2022-10-08T04:46:15.178Z,14.67
2022-10-08T04:48:46.934Z,20.60
2022-10-08T04:51:13.638Z,15.00
2022-10-08T04:53:40.332Z,14.10
2022-10-08T04:56:16.985Z,20.37
2022-10-08T04:58:44.844Z,11.97
2022-10-08T05:01:14.014Z,22.50
2022-10-08T05:03:43.529Z,18.60
2022-10-08T05:06:10.746Z,16.03
2022-10-08T05:08:37.594Z,16.73
2022-10-08T05:11:04.349Z,14.17
2022-10-08T05:13:31.068Z,14.47
2022-10-08T05:16:06.055Z,15.70
2022-10-08T05:18:33.863Z,23.33
2022-10-08T05:21:14.640Z,18.13
2022-10-08T05:23:45.128Z,18.40
2022-10-08T05:26:17.372Z,19.57
2022-10-08T05:28:47.235Z,18.50
2022-10-08T05:31:17.426Z,19.27
2022-10-08T05:33:44.448Z,20.37
2022-10-08T05:36:18.006Z,20.47
2022-10-08T05:38:44.745Z,13.50
2022-10-08T05:41:13.005Z,18.17
2022-10-08T05:43:40.854Z,14.17
2022-10-08T05:46:07.816Z,14.00
2022-10-08T05:48:34.978Z,16.03
2022-10-08T05:51:16.295Z,15.70
2022-10-08T05:53:53.427Z,16.67
2022-10-08T05:56:22.190Z,13.20
2022-10-08T05:58:49.664Z,19.30
2022-10-08T06:01:22.165Z,19.93
2022-10-08T06:04:08.700Z,15.97
2022-10-08T06:06:40.899Z,17.30
2022-10-08T06:09:08.616Z,14.10
2022-10-08T06:11:37.015Z,18.93
2022-10-08T06:14:06.108Z,14.97
2022-10-08T06:16:33.578Z,16.77
2022-10-08T06:19:02.053Z,17.27
2022-10-08T06:21:29.753Z,14.20
2022-10-08T06:24:01.862Z,16.07
2022-10-08T06:26:35.624Z,17.40
2022-10-08T06:29:05.640Z,19.53
2022-10-08T06:31:34.047Z,19.07
2022-10-08T06:34:02.483Z,15.07
2022-10-08T06:36:29.266Z,16.33
2022-10-08T06:39:01.733Z,18.57
2022-10-08T06:41:35.894Z,18.20
2022-10-08T06:44:04.416Z,19.07
2022-10-08T06:46:32.586Z,20.40
2022-10-08T06:49:01.267Z,16.33
2022-10-08T06:51:28.881Z,20.57
2022-10-08T06:54:01.452Z,20.47
2022-10-08T06:56:32.580Z,13.13
2022-10-08T06:58:59.549Z,14.33
2022-10-08T07:01:32.559Z,12.17
2022-10-08T07:04:00.699Z,12.47
2022-10-08T07:06:28.219Z,15.17
2022-10-08T07:08:57.351Z,18.30
2022-10-08T07:11:24.950Z,18.60
2022-10-08T07:13:51.758Z,16.63
2022-10-08T07:16:23.668Z,15.13
2022-10-08T07:18:52.331Z,9.90
2022-10-08T07:21:21.405Z,8.37
2022-10-08T07:23:48.578Z,8.57
2022-10-08T07:26:20.975Z,10.20
2022-10-08T07:28:56.760Z,14.90
2022-10-08T07:31:29.856Z,6.13
2022-10-08T07:33:57.818Z,8.90
2022-10-08T07:36:25.785Z,7.83
2022-10-08T07:38:56.962Z,5.97
2022-10-08T07:41:23.889Z,6.40
2022-10-08T07:43:52.583Z,9.63
2022-10-08T07:46:19.842Z,4.60
2022-10-08T07:48:46.904Z,9.90
2022-10-08T07:51:18.691Z,7.40
2022-10-08T07:53:45.656Z,7.13
2022-10-08T07:56:14.834Z,4.93
2022-10-08T07:58:41.807Z,4.43
2022-10-08T08:01:12.054Z,10.80
2022-10-08T08:03:38.843Z,9.43
2022-10-08T08:06:09.294Z,8.67
2022-10-08T08:08:37.844Z,4.63
2022-10-08T08:11:06.892Z,6.03
2022-10-08T08:13:37.476Z,6.83
2022-10-08T08:16:09.820Z,2.53
2022-10-08T08:18:39.312Z,3.73
2022-10-08T08:21:12.090Z,7.27
2022-10-08T08:23:50.387Z,3.30
2022-10-08T08:26:18.175Z,8.00
2022-10-08T08:28:45.119Z,4.27
2022-10-08T08:31:18.656Z,4.80
2022-10-08T08:33:51.083Z,4.50
2022-10-08T08:36:19.096Z,6.07
2022-10-08T08:38:46.762Z,5.67
2022-10-08T08:41:55.709Z,1.93
2022-10-08T08:44:25.314Z,5.27
2022-10-08T08:46:57.067Z,8.80
2022-10-08T08:49:42.368Z,3.23
2022-10-08T08:52:12.468Z,4.80
2022-10-08T08:54:39.166Z,5.27
2022-10-08T08:57:34.179Z,7.23
2022-10-08T09:00:05.929Z,5.87
2022-10-08T09:02:40.671Z,4.17
2022-10-08T09:05:13.049Z,3.20
2022-10-08T09:08:18.759Z,7.03
2022-10-08T09:10:57.032Z,5.20
2022-10-08T09:13:50.882Z,6.53
2022-10-08T09:16:18.373Z,6.70
2022-10-08T09:18:48.038Z,7.03
2022-10-08T09:21:15.325Z,5.00
2022-10-08T09:23:42.458Z,7.10
2022-10-08T09:26:22.461Z,6.43
2022-10-08T09:28:54.738Z,4.97
2022-10-08T09:31:36.596Z,5.37
2022-10-08T09:34:18.593Z,5.33
2022-10-08T09:37:00.502Z,6.33
2022-10-08T09:39:31.020Z,4.37
2022-10-08T09:42:17.543Z,4.03
2022-10-08T09:44:52.414Z,3.33
2022-10-08T09:47:21.854Z,6.23
2022-10-08T09:50:13.306Z,9.33
2022-10-08T09:52:40.967Z,4.07
2022-10-08T09:55:20.044Z,10.67
2022-10-08T09:58:00.366Z,4.60
2022-10-08T10:00:37.272Z,5.00
2022-10-08T10:03:07.165Z,5.60
2022-10-08T10:05:36.591Z,6.27
2022-10-08T10:08:04.430Z,6.07
2022-10-08T10:10:45.632Z,7.67
2022-10-08T10:13:19.235Z,4.57
2022-10-08T10:15:58.904Z,4.80
2022-10-08T10:19:04.671Z,7.20
2022-10-08T10:21:44.056Z,6.97
2022-10-08T10:24:22.505Z,6.53
2022-10-08T10:26:51.818Z,6.90
2022-10-08T10:29:25.245Z,5.17
2022-10-08T10:32:02.723Z,8.77
2022-10-08T10:34:32.177Z,3.50
2022-10-08T10:37:02.192Z,11.50
2022-10-08T10:39:28.820Z,8.93
2022-10-08T10:42:06.427Z,3.27
2022-10-08T10:44:49.767Z,5.80
2022-10-08T10:47:20.915Z,6.47
2022-10-08T10:49:48.059Z,4.60
2022-10-08T10:52:41.610Z,5.83
2022-10-08T10:55:31.480Z,2.97
2022-10-08T10:58:36.821Z,3.93
2022-10-08T11:01:25.505Z,10.00
2022-10-08T11:04:18.025Z,8.90
2022-10-08T11:06:44.582Z,3.73
2022-10-08T11:09:36.355Z,6.43
2022-10-08T11:12:05.993Z,8.00
2022-10-08T11:14:35.709Z,4.63
2022-10-08T11:17:36.166Z,4.33
2022-10-08T11:20:17.999Z,3.90
2022-10-08T11:22:57.612Z,3.77
2022-10-08T11:26:09.940Z,5.40
2022-10-08T11:28:30.109Z,9.90
2022-10-08T11:31:17.553Z,4.20
2022-10-08T11:33:46.014Z,7.53
2022-10-08T11:36:31.944Z,6.73
2022-10-08T11:39:24.638Z,5.87
2022-10-08T11:41:59.822Z,6.47
2022-10-08T11:44:27.213Z,12.07
2022-10-08T11:46:54.011Z,9.60
2022-10-08T11:49:20.655Z,8.63
2022-10-08T11:51:52.299Z,4.77
2022-10-08T11:54:38.407Z,8.23
2022-10-08T11:57:55.546Z,3.77
2022-10-08T12:00:37.306Z,5.07
2022-10-08T12:03:07.235Z,5.80
2022-10-08T12:05:40.405Z,8.03
2022-10-08T12:08:07.276Z,8.37
2022-10-08T12:10:36.866Z,10.93
2022-10-08T12:13:16.758Z,13.20
2022-10-08T12:15:44.468Z,8.07
2022-10-08T12:18:11.083Z,7.53
2022-10-08T12:20:39.698Z,9.80
2022-10-08T12:23:34.407Z,7.73
2022-10-08T12:26:00.994Z,6.60
2022-10-08T12:28:32.388Z,5.73
2022-10-08T12:31:01.854Z,6.33
2022-10-08T12:33:30.583Z,10.37
2022-10-08T12:36:20.954Z,6.93
2022-10-08T12:39:06.091Z,8.57
2022-10-08T12:41:40.377Z,6.67
2022-10-08T12:44:31.827Z,6.87
2022-10-08T12:47:13.680Z,7.77
2022-10-08T12:49:43.258Z,7.37
2022-10-08T12:52:15.825Z,4.43
2022-10-08T12:54:54.915Z,5.13
2022-10-08T12:57:31.377Z,8.20
2022-10-08T12:59:59.464Z,4.67
2022-10-08T13:02:39.195Z,7.30
2022-10-08T13:05:23.118Z,9.57
2022-10-08T13:07:50.195Z,9.17
2022-10-08T13:10:20.836Z,5.80
2022-10-08T13:13:27.779Z,7.13
2022-10-08T13:16:02.706Z,10.23
2022-10-08T13:18:30.886Z,5.93
2022-10-08T13:21:03.436Z,10.63
2022-10-08T13:23:43.163Z,5.97
2022-10-08T13:26:37.725Z,6.57
2022-10-08T13:29:22.774Z,12.37
2022-10-08T13:32:13.739Z,7.90
2022-10-08T13:34:40.359Z,5.83
2022-10-08T13:37:13.111Z,10.47
2022-10-08T13:39:50.823Z,12.73
2022-10-08T13:42:19.560Z,4.47
2022-10-08T13:44:46.543Z,6.33
2022-10-08T13:47:18.849Z,5.57
2022-10-08T13:49:46.437Z,4.53
2022-10-08T13:52:21.535Z,3.43
2022-10-08T13:54:49.777Z,5.53
2022-10-08T13:57:16.615Z,6.40
2022-10-08T13:59:43.291Z,6.63
2022-10-08T14:02:14.462Z,6.70
2022-10-08T14:04:41.237Z,6.53
2022-10-08T14:07:28.116Z,6.87
2022-10-08T14:09:57.431Z,6.83
2022-10-08T14:12:28.769Z,3.73
2022-10-08T14:14:56.183Z,6.13
2022-10-08T14:17:23.150Z,9.93
2022-10-08T14:19:50.263Z,8.87
2022-10-08T14:22:17.442Z,8.47
2022-10-08T14:24:44.142Z,9.00
2022-10-08T14:27:11.044Z,6.73
2022-10-08T14:29:37.811Z,4.73
2022-10-08T14:32:05.737Z,4.23
2022-10-08T14:34:32.559Z,10.97
2022-10-08T14:36:59.679Z,7.10
2022-10-08T14:39:26.890Z,5.07
2022-10-08T14:41:54.287Z,4.10
2022-10-08T14:44:22.606Z,3.37
2022-10-08T14:46:52.814Z,11.30
2022-10-08T14:49:20.431Z,5.57
2022-10-08T14:51:47.715Z,5.47
2022-10-08T14:54:14.475Z,9.60
2022-10-08T14:56:42.836Z,5.37
2022-10-08T14:59:10.668Z,7.40
2022-10-08T15:01:37.496Z,9.17
2022-10-08T15:04:05.429Z,9.93
2022-10-08T15:06:33.473Z,8.43
2022-10-08T15:09:00.276Z,6.30
2022-10-08T15:11:27.056Z,11.43
2022-10-08T15:13:53.971Z,11.07
2022-10-08T15:16:20.755Z,7.27
2022-10-08T15:18:47.755Z,6.03
2022-10-08T15:21:14.644Z,7.00
2022-10-08T15:23:41.696Z,4.53
2022-10-08T15:26:12.459Z,4.73
2022-10-08T15:28:39.364Z,7.23
2022-10-08T15:31:14.506Z,4.80
2022-10-08T15:33:43.240Z,4.70
2022-10-08T15:36:16.686Z,9.83
2022-10-08T15:38:43.452Z,7.33
2022-10-08T15:41:10.623Z,6.40
2022-10-08T15:43:37.334Z,5.07
2022-10-08T15:46:12.683Z,5.30
2022-10-08T15:48:39.482Z,3.37
2022-10-08T15:51:07.455Z,6.77
2022-10-08T15:53:35.637Z,6.30
2022-10-08T15:56:03.167Z,5.07
2022-10-08T15:58:49.762Z,8.53
2022-10-08T16:01:20.239Z,9.20
2022-10-08T16:03:49.241Z,7.80
2022-10-08T16:06:19.327Z,8.03
2022-10-08T16:08:46.425Z,2.93
2022-10-08T16:11:15.679Z,10.57
2022-10-08T16:13:49.543Z,9.93
2022-10-08T16:16:17.899Z,8.80
2022-10-08T16:18:46.977Z,12.40
2022-10-08T16:21:14.235Z,7.53
2022-10-08T16:23:40.909Z,7.77
2022-10-08T16:26:10.674Z,6.50
2022-10-08T16:28:39.840Z,7.10
2022-10-08T16:31:08.501Z,4.50
2022-10-08T16:33:35.259Z,5.70
2022-10-08T16:36:04.881Z,8.00
2022-10-08T16:38:34.627Z,6.10
2022-10-08T16:41:18.291Z,11.17
2022-10-08T16:43:49.150Z,6.50
2022-10-08T16:46:35.117Z,8.47
2022-10-08T16:49:25.324Z,14.87
2022-10-08T16:51:57.536Z,13.57
2022-10-08T16:54:24.415Z,8.77
2022-10-08T16:56:51.483Z,7.43
2022-10-08T16:59:21.191Z,6.57
2022-10-08T17:01:51.241Z,8.60
2022-10-08T17:04:19.160Z,9.10
2022-10-08T17:06:46.639Z,9.63
2022-10-08T17:09:13.810Z,6.73
2022-10-08T17:11:41.845Z,6.93
2022-10-08T17:14:10.421Z,6.17
2022-10-08T17:16:37.854Z,6.50
2022-10-08T17:19:05.007Z,7.37
2022-10-08T17:21:32.749Z,6.27
2022-10-08T17:24:01.839Z,2.27
2022-10-08T17:26:28.810Z,4.97
2022-10-08T17:28:55.700Z,4.80
2022-10-08T17:31:25.744Z,3.07
2022-10-08T17:33:53.193Z,6.70
2022-10-08T17:36:22.842Z,2.07
2022-10-08T17:38:52.855Z,4.57
2022-10-08T17:41:20.874Z,5.80
2022-10-08T17:43:49.171Z,1.87
2022-10-08T17:46:19.320Z,3.50
2022-10-08T17:48:46.664Z,7.30
2022-10-08T17:51:17.234Z,5.30
2022-10-08T17:53:44.765Z,3.40
2022-10-08T17:56:13.371Z,4.50
2022-10-08T17:58:40.530Z,8.43
2022-10-08T18:01:12.996Z,4.87
2022-10-08T18:03:41.579Z,7.10
2022-10-08T18:06:09.956Z,7.33
2022-10-08T18:08:36.683Z,2.80
2022-10-08T18:11:05.297Z,6.50
2022-10-08T18:13:32.537Z,11.97
2022-10-08T18:16:06.962Z,9.00
2022-10-08T18:18:34.611Z,9.27
2022-10-08T18:21:02.353Z,7.60
2022-10-08T18:23:30.828Z,11.43
2022-10-08T18:26:15.712Z,7.57
2022-10-08T18:28:42.829Z,4.93
2022-10-08T18:31:11.992Z,12.40
2022-10-08T18:33:40.470Z,5.63
2022-10-08T18:36:13.379Z,6.90
2022-10-08T18:38:41.989Z,11.07
2022-10-08T18:41:15.905Z,8.43
2022-10-08T18:43:43.502Z,7.77
2022-10-08T18:46:10.982Z,6.50
2022-10-08T18:48:38.780Z,4.33
2022-10-08T18:51:07.026Z,7.40
2022-10-08T18:53:39.770Z,8.90
2022-10-08T18:56:09.206Z,9.87
2022-10-08T18:58:38.076Z,5.53
2022-10-08T19:01:06.337Z,8.40
2022-10-08T19:03:33.512Z,9.57
2022-10-08T19:06:00.433Z,18.00
2022-10-08T19:08:27.079Z,9.80
2022-10-08T19:10:53.959Z,9.50
2022-10-08T19:13:20.798Z,10.20
2022-10-08T19:15:47.623Z,13.57
2022-10-08T19:18:14.523Z,6.80
2022-10-08T19:20:41.232Z,7.67
2022-10-08T19:23:08.068Z,10.23
2022-10-08T19:25:35.307Z,4.97
2022-10-08T19:28:01.997Z,7.87
2022-10-08T19:30:34.074Z,5.70
2022-10-08T19:33:01.201Z,8.57
2022-10-08T19:35:28.287Z,8.17
2022-10-08T19:37:55.130Z,12.87
2022-10-08T19:40:22.187Z,14.67
2022-10-08T19:42:49.132Z,12.27
2022-10-08T19:45:16.529Z,8.83
2022-10-08T19:47:43.303Z,6.53
2022-10-08T19:50:10.433Z,11.03
2022-10-08T19:52:38.488Z,11.97
2022-10-08T19:55:06.086Z,7.93
2022-10-08T19:57:32.773Z,15.63
2022-10-08T19:59:59.550Z,10.97
2022-10-08T20:02:26.256Z,13.70
2022-10-08T20:04:53.199Z,8.80
2022-10-08T20:07:20.053Z,9.77
2022-10-08T20:09:47.054Z,7.23
2022-10-08T20:12:13.848Z,11.27
2022-10-08T20:14:40.509Z,9.17
2022-10-08T20:17:08.135Z,5.20
2022-10-08T20:19:35.264Z,10.43
2022-10-08T20:22:02.104Z,12.00
2022-10-08T20:24:28.900Z,10.73
2022-10-08T20:26:55.553Z,10.20
2022-10-08T20:29:26.258Z,12.23
2022-10-08T20:31:55.794Z,8.27
2022-10-08T20:34:27.132Z,8.53
2022-10-08T20:36:53.837Z,12.20
2022-10-08T20:39:22.101Z,10.43
2022-10-08T20:41:49.526Z,6.23
2022-10-08T20:44:16.543Z,6.67
2022-10-08T20:46:44.140Z,17.10
2022-10-08T20:49:13.155Z,4.30
2022-10-08T20:51:41.409Z,6.07
2022-10-08T20:54:10.154Z,12.30
2022-10-08T20:56:40.256Z,8.30
2022-10-08T20:59:08.669Z,8.70
2022-10-08T21:01:38.266Z,10.33
2022-10-08T21:04:06.582Z,4.70
2022-10-08T21:06:39.019Z,13.10
2022-10-08T21:09:06.764Z,7.27
2022-10-08T21:11:34.838Z,9.70
2022-10-08T21:14:03.634Z,8.97
2022-10-08T21:16:33.530Z,11.47
2022-10-08T21:19:02.396Z,6.43
2022-10-08T21:21:30.973Z,14.03
2022-10-08T21:23:58.342Z,10.57
2022-10-08T21:26:30.321Z,6.83
2022-10-08T21:29:00.124Z,10.00
2022-10-08T21:31:28.537Z,12.13
2022-10-08T21:33:56.279Z,12.33
2022-10-08T21:36:28.976Z,5.83
2022-10-08T21:38:56.002Z,7.70
2022-10-08T21:41:24.564Z,6.53
2022-10-08T21:43:53.209Z,10.07
2022-10-08T21:46:26.219Z,5.97
2022-10-08T21:48:56.594Z,8.63
2022-10-08T21:51:23.867Z,12.57
2022-10-08T21:53:53.206Z,7.30
2022-10-08T21:56:22.900Z,6.50
2022-10-08T21:58:52.852Z,10.70
2022-10-08T22:01:22.580Z,6.40
2022-10-08T22:03:53.494Z,8.97
2022-10-08T22:06:20.200Z,11.80
2022-10-08T22:08:47.176Z,3.70
2022-10-08T22:11:13.940Z,13.57
2022-10-08T22:13:40.801Z,11.70
2022-10-08T22:16:08.789Z,10.13
2022-10-08T22:18:35.872Z,12.13
2022-10-08T22:21:11.518Z,10.70
2022-10-08T22:23:38.240Z,11.37
2022-10-08T22:26:08.590Z,9.73
2022-10-08T22:28:35.702Z,11.00
2022-10-08T22:31:04.398Z,9.17
2022-10-08T22:33:32.162Z,5.93
2022-10-08T22:36:08.718Z,11.67
2022-10-08T22:38:36.985Z,14.67
2022-10-08T22:41:05.587Z,11.50
2022-10-08T22:43:32.397Z,9.90
2022-10-08T22:46:05.995Z,11.87
2022-10-08T22:48:33.233Z,10.37
2022-10-08T22:51:05.529Z,9.20
2022-10-08T22:53:32.742Z,15.13
2022-10-08T22:55:59.884Z,20.03
2022-10-08T22:58:26.554Z,11.83
2022-10-08T23:01:01.616Z,12.47
2022-10-08T23:03:28.825Z,8.10
2022-10-08T23:06:06.446Z,13.27
2022-10-08T23:08:34.757Z,8.27
2022-10-08T23:11:02.841Z,10.13
2022-10-08T23:13:30.632Z,8.33
2022-10-08T23:16:05.382Z,12.97
2022-10-08T23:18:34.417Z,6.23
2022-10-08T23:21:02.987Z,7.37
2022-10-08T23:23:30.182Z,7.50
2022-10-08T23:25:59.500Z,8.67
2022-10-08T23:28:26.923Z,10.57
2022-10-08T23:30:54.055Z,7.27
2022-10-08T23:33:20.915Z,6.10
2022-10-08T23:35:55.551Z,9.33
2022-10-08T23:38:23.255Z,11.07
2022-10-08T23:40:50.969Z,4.40
2022-10-08T23:43:17.868Z,13.80
2022-10-08T23:45:44.719Z,8.17
2022-10-08T23:48:11.524Z,10.90
2022-10-08T23:50:38.570Z,14.33
2022-10-08T23:53:05.503Z,11.23
2022-10-08T23:55:32.144Z,10.73
2022-10-08T23:57:58.790Z,9.43
